createdAt,value
2017-10-28T00:00:04.839Z,1017.71
2017-10-28T00:00:45.319Z,1017.68
2017-10-28T00:01:25.775Z,1017.68
2017-10-28T00:02:06.220Z,1017.63
2017-10-28T00:02:46.651Z,1017.6
2017-10-28T00:03:27.103Z,1017.55
2017-10-28T00:04:07.555Z,1017.56
2017-10-28T00:04:48.012Z,1017.6
2017-10-28T00:05:28.486Z,1017.54
2017-10-28T00:06:08.989Z,1017.55
2017-10-28T00:06:49.461Z,1017.56
2017-10-28T00:07:29.942Z,1017.56
2017-10-28T00:08:10.416Z,1017.51
2017-10-28T00:08:50.876Z,1017.5
2017-10-28T00:10:48.472Z,1017.41
2017-10-28T00:11:28.980Z,1017.38
2017-10-28T00:12:09.475Z,1017.38
2017-10-28T00:12:49.953Z,1017.38
2017-10-28T00:13:30.434Z,1017.42
2017-10-28T00:14:10.848Z,1017.43
2017-10-28T00:16:08.466Z,1017.46
2017-10-28T00:16:48.936Z,1017.49
2017-10-28T00:17:29.441Z,1017.51
2017-10-28T00:18:09.915Z,1017.53
2017-10-28T00:18:50.391Z,1017.54
2017-10-28T00:19:30.852Z,1017.57
2017-10-28T00:20:11.313Z,1017.57
2017-10-28T00:20:51.749Z,1017.57
2017-10-28T00:21:32.192Z,1017.6
2017-10-28T00:22:12.661Z,1017.6
2017-10-28T00:22:53.114Z,1017.57
2017-10-28T00:23:33.581Z,1017.56
2017-10-28T00:24:14.080Z,1017.57
2017-10-28T00:24:54.553Z,1017.53
2017-10-28T00:25:35.051Z,1017.53
2017-10-28T00:26:15.503Z,1017.49
2017-10-28T00:26:55.973Z,1017.49
2017-10-28T00:27:36.454Z,1017.45
2017-10-28T00:28:16.953Z,1017.43
2017-10-28T00:30:44.875Z,1017.51
2017-10-28T00:31:25.327Z,1017.52
2017-10-28T00:32:05.804Z,1017.47
2017-10-28T00:32:46.299Z,1017.49
2017-10-28T00:33:26.742Z,1017.5
2017-10-28T00:34:07.214Z,1017.54
2017-10-28T00:36:35.132Z,1017.56
2017-10-28T00:37:15.625Z,1017.61
2017-10-28T00:37:56.092Z,1017.62
2017-10-28T00:38:36.574Z,1017.6
2017-10-28T00:39:17.070Z,1017.6
2017-10-28T00:39:57.558Z,1017.62
2017-10-28T00:40:38.028Z,1017.59
2017-10-28T00:41:18.499Z,1017.56
2017-10-28T00:41:58.957Z,1017.56
2017-10-28T00:42:39.438Z,1017.53
2017-10-28T00:43:19.917Z,1017.53
2017-10-28T00:44:00.433Z,1017.53
2017-10-28T00:44:40.933Z,1017.52
2017-10-28T00:45:21.344Z,1017.52
2017-10-28T00:46:01.790Z,1017.49
2017-10-28T00:46:42.263Z,1017.49
2017-10-28T00:47:22.738Z,1017.52
2017-10-28T00:48:03.211Z,1017.52
2017-10-28T00:48:43.703Z,1017.54
2017-10-28T00:49:24.185Z,1017.55
2017-10-28T00:50:04.642Z,1017.52
2017-10-28T00:50:45.077Z,1017.5
2017-10-28T00:51:25.534Z,1017.5
2017-10-28T00:53:18.117Z,1017.51
2017-10-28T00:53:58.580Z,1017.54
2017-10-28T00:54:39.052Z,1017.51
2017-10-28T00:55:19.525Z,1017.48
2017-10-28T00:56:00.009Z,1017.52
2017-10-28T00:56:40.470Z,1017.5
2017-10-28T00:57:20.945Z,1017.47
2017-10-28T00:59:18.567Z,1017.51
2017-10-28T00:59:59.047Z,1017.5
2017-10-28T01:00:39.527Z,1017.52
2017-10-28T01:01:20.013Z,1017.53
2017-10-28T01:02:00.541Z,1017.5
2017-10-28T01:02:41.024Z,1017.47
2017-10-28T01:03:21.514Z,1017.46
2017-10-28T01:04:02.003Z,1017.45
2017-10-28T01:04:42.507Z,1017.44
2017-10-28T01:05:22.999Z,1017.44
2017-10-28T01:06:03.477Z,1017.43
2017-10-28T01:06:43.978Z,1017.46
2017-10-28T01:07:24.448Z,1017.42
2017-10-28T01:08:04.899Z,1017.41
2017-10-28T01:10:17.596Z,1017.38
2017-10-28T01:10:58.090Z,1017.42
2017-10-28T01:11:38.568Z,1017.38
2017-10-28T01:12:19.064Z,1017.36
2017-10-28T01:12:59.525Z,1017.34
2017-10-28T01:13:40.023Z,1017.35
2017-10-28T01:14:20.507Z,1017.32
2017-10-28T01:15:00.989Z,1017.32
2017-10-28T01:15:41.472Z,1017.32
2017-10-28T01:16:21.956Z,1017.31
2017-10-28T01:17:02.429Z,1017.33
2017-10-28T01:17:42.928Z,1017.29
2017-10-28T01:18:23.402Z,1017.3
2017-10-28T01:19:03.885Z,1017.29
2017-10-28T01:19:44.380Z,1017.29
2017-10-28T01:20:24.868Z,1017.28
2017-10-28T01:21:05.354Z,1017.33
2017-10-28T01:21:45.855Z,1017.27
2017-10-28T01:22:26.339Z,1017.28
2017-10-28T01:23:06.821Z,1017.26
2017-10-28T01:23:48.183Z,1017.31
2017-10-28T01:24:28.690Z,1017.29
2017-10-28T01:25:09.169Z,1017.33
2017-10-28T01:25:49.662Z,1017.27
2017-10-28T01:26:30.126Z,1017.27
2017-10-28T01:27:10.603Z,1017.25
2017-10-28T01:27:51.105Z,1017.22
2017-10-28T01:28:31.600Z,1017.24
2017-10-28T01:29:12.072Z,1017.22
2017-10-28T01:29:53.508Z,1017.19
2017-10-28T01:30:33.998Z,1017.18
2017-10-28T01:31:14.486Z,1017.16
2017-10-28T01:31:54.977Z,1017.19
2017-10-28T01:32:36.388Z,1017.15
2017-10-28T01:33:16.876Z,1017.18
2017-10-28T01:33:57.380Z,1017.17
2017-10-28T01:34:37.876Z,1017.14
2017-10-28T01:35:18.358Z,1017.18
2017-10-28T01:35:58.817Z,1017.14
2017-10-28T01:36:39.316Z,1017.19
2017-10-28T01:37:19.820Z,1017.17
2017-10-28T01:38:00.289Z,1017.13
2017-10-28T01:38:40.776Z,1017.13
2017-10-28T01:39:21.267Z,1017.12
2017-10-28T01:40:01.756Z,1017.16
2017-10-28T01:40:42.239Z,1017.16
2017-10-28T01:41:22.721Z,1017.15
2017-10-28T01:42:03.234Z,1017.11
2017-10-28T01:42:43.712Z,1017.11
2017-10-28T01:43:24.203Z,1017.09
2017-10-28T01:45:52.156Z,1017.09
2017-10-28T01:46:32.627Z,1017.1
2017-10-28T01:47:13.119Z,1017.09
2017-10-28T01:47:53.612Z,1017.08
2017-10-28T01:48:34.079Z,1017.08
2017-10-28T01:49:14.565Z,1017.07
2017-10-28T01:49:55.006Z,1017.09
2017-10-28T01:50:35.505Z,1017.09
2017-10-28T01:51:15.911Z,1017.12
2017-10-28T01:53:13.595Z,1017.11
2017-10-28T01:53:54.075Z,1017.07
2017-10-28T01:54:34.543Z,1017.03
2017-10-28T01:55:15.035Z,1017.03
2017-10-28T01:55:55.531Z,1017.01
2017-10-28T01:56:36.028Z,1017.03
2017-10-28T01:57:16.506Z,1017.05
2017-10-28T01:57:56.996Z,1017.07
2017-10-28T01:58:37.482Z,1017.09
2017-10-28T01:59:17.973Z,1017.11
2017-10-28T01:59:58.449Z,1017.09
2017-10-28T02:00:38.959Z,1017.11
2017-10-28T02:01:19.484Z,1017.1
2017-10-28T02:01:59.883Z,1017.07
2017-10-28T02:02:40.371Z,1017.07
2017-10-28T02:03:20.860Z,1017.01
2017-10-28T02:04:01.335Z,1017.03
2017-10-28T02:04:41.800Z,1016.99
2017-10-28T02:05:22.278Z,1016.98
2017-10-28T02:06:02.759Z,1016.98
2017-10-28T02:06:43.238Z,1016.97
2017-10-28T02:07:23.735Z,1016.95
2017-10-28T02:08:04.229Z,1016.96
2017-10-28T02:08:44.717Z,1016.93
2017-10-28T02:09:25.207Z,1016.9
2017-10-28T02:10:05.687Z,1016.93
2017-10-28T02:10:46.174Z,1016.87
2017-10-28T02:11:26.643Z,1016.87
2017-10-28T02:12:07.143Z,1016.85
2017-10-28T02:12:47.614Z,1016.81
2017-10-28T02:13:28.085Z,1016.83
2017-10-28T02:14:08.582Z,1016.85
2017-10-28T02:14:49.079Z,1016.84
2017-10-28T02:15:29.539Z,1016.82
2017-10-28T02:16:10.007Z,1016.82
2017-10-28T02:16:50.449Z,1016.85
2017-10-28T02:18:43.025Z,1016.88
2017-10-28T02:19:23.502Z,1016.84
2017-10-28T02:20:03.997Z,1016.85
2017-10-28T02:20:44.470Z,1016.89
2017-10-28T02:21:25.047Z,1016.88
2017-10-28T02:22:05.427Z,1016.83
2017-10-28T02:22:45.892Z,1016.79
2017-10-28T02:23:26.378Z,1016.84
2017-10-28T02:24:06.878Z,1016.76
2017-10-28T02:24:47.361Z,1016.74
2017-10-28T02:25:27.838Z,1016.74
2017-10-28T02:26:08.333Z,1016.78
2017-10-28T02:26:48.811Z,1016.72
2017-10-28T02:27:29.302Z,1016.73
2017-10-28T02:28:09.792Z,1016.7
2017-10-28T02:28:50.268Z,1016.66
2017-10-28T02:29:30.756Z,1016.63
2017-10-28T02:30:11.229Z,1016.67
2017-10-28T02:30:51.784Z,1016.64
2017-10-28T02:31:32.260Z,1016.63
2017-10-28T02:32:12.738Z,1016.64
2017-10-28T02:32:53.228Z,1016.65
2017-10-28T02:33:33.715Z,1016.67
2017-10-28T02:34:14.224Z,1016.71
2017-10-28T02:34:54.657Z,1016.64
2017-10-28T02:35:35.161Z,1016.66
2017-10-28T02:36:15.650Z,1016.61
2017-10-28T02:36:56.123Z,1016.6
2017-10-28T02:37:36.590Z,1016.59
2017-10-28T02:38:17.081Z,1016.55
2017-10-28T02:38:57.552Z,1016.56
2017-10-28T02:39:38.044Z,1016.54
2017-10-28T02:40:19.432Z,1016.5
2017-10-28T02:40:59.904Z,1016.52
2017-10-28T02:41:40.391Z,1016.5
2017-10-28T02:42:20.879Z,1016.51
2017-10-28T02:43:01.386Z,1016.51
2017-10-28T02:43:41.837Z,1016.48
2017-10-28T02:44:22.315Z,1016.44
2017-10-28T02:45:02.785Z,1016.42
2017-10-28T02:45:43.258Z,1016.4
2017-10-28T02:46:24.470Z,1016.44
2017-10-28T02:47:04.968Z,1016.42
2017-10-28T02:47:45.457Z,1016.38
2017-10-28T02:48:25.947Z,1016.34
2017-10-28T02:49:07.373Z,1016.37
2017-10-28T02:49:47.861Z,1016.38
2017-10-28T02:50:28.350Z,1016.35
2017-10-28T02:51:08.831Z,1016.35
2017-10-28T02:51:49.303Z,1016.31
2017-10-28T02:52:29.780Z,1016.3
2017-10-28T02:53:10.284Z,1016.33
2017-10-28T02:53:50.764Z,1016.31
2017-10-28T02:54:31.254Z,1016.25
2017-10-28T02:55:11.781Z,1016.26
2017-10-28T02:55:52.272Z,1016.25
2017-10-28T02:56:32.744Z,1016.19
2017-10-28T02:57:13.235Z,1016.21
2017-10-28T02:57:53.712Z,1016.2
2017-10-28T02:58:34.198Z,1016.13
2017-10-28T02:59:14.661Z,1016.12
2017-10-28T02:59:55.120Z,1016.13
2017-10-28T03:00:35.575Z,1016.1
2017-10-28T03:01:16.044Z,1016.13
2017-10-28T03:01:56.535Z,1016.08
2017-10-28T03:02:37.017Z,1016.1
2017-10-28T03:03:17.501Z,1016.08
2017-10-28T03:03:57.982Z,1016.08
2017-10-28T03:04:38.438Z,1016.03
2017-10-28T03:05:18.889Z,1016.04
2017-10-28T03:07:36.713Z,1015.96
2017-10-28T03:08:17.145Z,1015.97
2017-10-28T03:08:57.616Z,1015.94
2017-10-28T03:09:38.097Z,1015.92
2017-10-28T03:10:18.583Z,1015.92
2017-10-28T03:10:59.066Z,1015.93
2017-10-28T03:11:39.555Z,1015.92
2017-10-28T03:12:20.041Z,1015.93
2017-10-28T03:13:00.536Z,1015.87
2017-10-28T03:13:41.030Z,1015.91
2017-10-28T03:14:21.542Z,1015.9
2017-10-28T03:15:01.989Z,1015.85
2017-10-28T03:15:42.434Z,1015.85
2017-10-28T03:16:22.913Z,1015.83
2017-10-28T03:17:03.413Z,1015.86
2017-10-28T03:17:43.881Z,1015.88
2017-10-28T03:18:24.361Z,1015.87
2017-10-28T03:19:04.798Z,1015.89
2017-10-28T03:19:45.264Z,1015.95
2017-10-28T03:21:37.827Z,1015.92
2017-10-28T03:22:18.290Z,1015.96
2017-10-28T03:22:58.764Z,1015.89
2017-10-28T03:23:39.240Z,1015.93
2017-10-28T03:24:19.734Z,1015.95
2017-10-28T03:25:00.218Z,1015.97
2017-10-28T03:25:40.705Z,1015.95
2017-10-28T03:26:21.197Z,1015.94
2017-10-28T03:27:01.681Z,1016.01
2017-10-28T03:27:42.199Z,1016.01
2017-10-28T03:29:34.800Z,1015.97
2017-10-28T03:30:15.208Z,1016
2017-10-28T03:30:55.694Z,1016
2017-10-28T03:31:36.203Z,1016.02
2017-10-28T03:32:16.675Z,1016
2017-10-28T03:32:57.133Z,1016.03
2017-10-28T03:33:37.613Z,1016.07
2017-10-28T03:34:18.097Z,1016.1
2017-10-28T03:34:59.222Z,1016.12
2017-10-28T03:35:39.702Z,1016.15
2017-10-28T03:36:20.187Z,1016.12
2017-10-28T03:37:00.690Z,1016.12
2017-10-28T03:37:41.173Z,1016.11
2017-10-28T03:38:21.643Z,1016.14
2017-10-28T03:39:02.110Z,1016.05
2017-10-28T03:39:42.537Z,1016.09
2017-10-28T03:41:40.147Z,1016.12
2017-10-28T03:42:20.621Z,1016.08
2017-10-28T03:43:01.116Z,1016.13
2017-10-28T03:43:41.589Z,1016.11
2017-10-28T03:44:22.075Z,1016.07
2017-10-28T03:45:02.552Z,1016.09
2017-10-28T03:45:43.062Z,1016.12
2017-10-28T03:46:24.236Z,1016.1
2017-10-28T03:47:04.727Z,1016.08
2017-10-28T03:47:45.194Z,1016.09
2017-10-28T03:48:25.660Z,1016.1
2017-10-28T03:49:06.122Z,1016.09
2017-10-28T03:49:46.623Z,1016.08
2017-10-28T03:50:27.106Z,1016.13
2017-10-28T03:51:07.609Z,1016.1
2017-10-28T03:51:48.102Z,1016.12
2017-10-28T03:52:28.616Z,1016.14
2017-10-28T03:53:09.091Z,1016.13
2017-10-28T03:53:49.578Z,1016.11
2017-10-28T03:54:30.058Z,1016.13
2017-10-28T03:55:10.522Z,1016.18
2017-10-28T03:55:51.025Z,1016.18
2017-10-28T03:56:31.517Z,1016.16
2017-10-28T03:57:11.997Z,1016.14
2017-10-28T03:57:52.501Z,1016.13
2017-10-28T03:58:33.002Z,1016.12
2017-10-28T03:59:13.468Z,1016.13
2017-10-28T03:59:53.939Z,1016.11
2017-10-28T04:00:34.439Z,1016.09
2017-10-28T04:01:14.926Z,1016.1
2017-10-28T04:03:27.593Z,1016.08
2017-10-28T04:04:08.069Z,1016.07
2017-10-28T04:04:48.533Z,1016.05
2017-10-28T04:05:29.014Z,1016.07
2017-10-28T04:06:09.506Z,1016.02
2017-10-28T04:06:49.983Z,1016.03
2017-10-28T04:07:30.486Z,1016.05
2017-10-28T04:08:10.983Z,1016.03
2017-10-28T04:08:51.458Z,1016
2017-10-28T04:09:31.945Z,1016.02
2017-10-28T04:10:12.413Z,1016.05
2017-10-28T04:10:52.918Z,1016.02
2017-10-28T04:11:33.399Z,1016.02
2017-10-28T04:12:13.876Z,1016.04
2017-10-28T04:12:54.336Z,1015.99
2017-10-28T04:13:34.822Z,1015.96
2017-10-28T04:14:15.308Z,1015.99
2017-10-28T04:14:55.794Z,1015.94
2017-10-28T04:15:36.287Z,1016
2017-10-28T04:16:16.766Z,1015.94
2017-10-28T04:16:57.248Z,1015.96
2017-10-28T04:17:37.728Z,1015.91
2017-10-28T04:18:18.225Z,1015.96
2017-10-28T04:18:58.720Z,1015.88
2017-10-28T04:19:39.205Z,1015.87
2017-10-28T04:20:19.674Z,1015.81
2017-10-28T04:21:00.160Z,1015.8
2017-10-28T04:21:40.607Z,1015.8
2017-10-28T04:22:21.022Z,1015.77
2017-10-28T04:23:01.488Z,1015.71
2017-10-28T04:23:41.954Z,1015.69
2017-10-28T04:24:22.394Z,1015.72
2017-10-28T04:25:02.848Z,1015.63
2017-10-28T04:25:43.323Z,1015.65
2017-10-28T04:26:23.787Z,1015.62
2017-10-28T04:27:04.240Z,1015.59
2017-10-28T04:27:44.698Z,1015.58
2017-10-28T04:28:25.186Z,1015.59
2017-10-28T04:29:05.642Z,1015.58
2017-10-28T04:29:46.075Z,1015.57
2017-10-28T04:30:26.546Z,1015.56
2017-10-28T04:31:06.997Z,1015.59
2017-10-28T04:31:47.476Z,1015.56
2017-10-28T04:32:27.936Z,1015.56
2017-10-28T04:33:08.402Z,1015.54
2017-10-28T04:35:36.396Z,1015.5
2017-10-28T04:36:16.839Z,1015.51
2017-10-28T04:36:57.339Z,1015.47
2017-10-28T04:37:37.797Z,1015.47
2017-10-28T04:38:18.287Z,1015.5
2017-10-28T04:38:58.760Z,1015.51
2017-10-28T04:39:39.219Z,1015.49
2017-10-28T04:40:19.683Z,1015.44
2017-10-28T04:41:00.142Z,1015.44
2017-10-28T04:41:40.601Z,1015.44
2017-10-28T04:42:21.054Z,1015.44
2017-10-28T04:43:01.490Z,1015.51
2017-10-28T04:43:41.970Z,1015.52
2017-10-28T04:44:22.431Z,1015.53
2017-10-28T04:46:20.051Z,1015.49
2017-10-28T04:47:00.545Z,1015.52
2017-10-28T04:47:40.963Z,1015.57
2017-10-28T04:50:08.955Z,1015.46
2017-10-28T04:50:49.427Z,1015.41
2017-10-28T04:51:29.911Z,1015.46
2017-10-28T04:52:10.391Z,1015.38
2017-10-28T04:52:50.908Z,1015.36
2017-10-28T04:53:31.374Z,1015.37
2017-10-28T04:54:11.847Z,1015.4
2017-10-28T04:54:52.305Z,1015.37
2017-10-28T04:55:32.758Z,1015.42
2017-10-28T04:56:13.211Z,1015.4
2017-10-28T04:56:53.664Z,1015.42
2017-10-28T04:57:34.123Z,1015.43
2017-10-28T04:58:14.559Z,1015.47
2017-10-28T04:58:55.044Z,1015.44
2017-10-28T04:59:35.476Z,1015.43
2017-10-28T05:00:15.933Z,1015.47
2017-10-28T05:02:43.897Z,1015.42
2017-10-28T05:03:24.390Z,1015.47
2017-10-28T05:04:04.829Z,1015.43
2017-10-28T05:04:45.297Z,1015.42
2017-10-28T05:05:25.777Z,1015.43
2017-10-28T05:06:06.268Z,1015.45
2017-10-28T05:06:46.750Z,1015.46
2017-10-28T05:07:27.226Z,1015.44
2017-10-28T05:09:24.815Z,1015.54
2017-10-28T05:10:05.277Z,1015.56
2017-10-28T05:10:45.763Z,1015.52
2017-10-28T05:11:26.268Z,1015.55
2017-10-28T05:12:06.757Z,1015.56
2017-10-28T05:12:47.236Z,1015.54
2017-10-28T05:13:27.710Z,1015.49
2017-10-28T05:14:08.190Z,1015.5
2017-10-28T05:14:48.669Z,1015.42
2017-10-28T05:15:29.151Z,1015.36
2017-10-28T05:16:09.649Z,1015.4
2017-10-28T05:16:50.149Z,1015.37
2017-10-28T05:17:30.631Z,1015.44
2017-10-28T05:18:11.087Z,1015.4
2017-10-28T05:18:51.569Z,1015.4
2017-10-28T05:19:32.036Z,1015.33
2017-10-28T05:20:12.467Z,1015.32
2017-10-28T05:20:52.946Z,1015.33
2017-10-28T05:21:33.367Z,1015.4
2017-10-28T05:22:13.824Z,1015.42
2017-10-28T05:22:54.267Z,1015.44
2017-10-28T05:23:34.732Z,1015.45
2017-10-28T05:24:15.190Z,1015.46
2017-10-28T05:24:55.655Z,1015.47
2017-10-28T05:27:23.550Z,1015.55
2017-10-28T05:28:04.016Z,1015.49
2017-10-28T05:28:44.480Z,1015.5
2017-10-28T05:29:24.973Z,1015.53
2017-10-28T05:30:05.464Z,1015.5
2017-10-28T05:30:45.951Z,1015.54
2017-10-28T05:31:26.404Z,1015.59
2017-10-28T05:32:06.850Z,1015.56
2017-10-28T05:32:47.287Z,1015.57
2017-10-28T05:35:05.103Z,1015.45
2017-10-28T05:35:45.652Z,1015.49
2017-10-28T05:36:26.163Z,1015.56
2017-10-28T05:37:06.659Z,1015.54
2017-10-28T05:37:47.199Z,1015.54
2017-10-28T05:38:27.714Z,1015.54
2017-10-28T05:39:08.181Z,1015.54
2017-10-28T05:39:48.757Z,1015.52
2017-10-28T05:40:29.300Z,1015.52
2017-10-28T05:41:09.811Z,1015.54
2017-10-28T05:41:50.295Z,1015.57
2017-10-28T05:42:30.831Z,1015.53
2017-10-28T05:43:11.405Z,1015.57
2017-10-28T05:43:51.982Z,1015.57
2017-10-28T05:44:32.518Z,1015.53
2017-10-28T05:45:12.992Z,1015.58
2017-10-28T05:45:53.535Z,1015.56
2017-10-28T05:46:34.063Z,1015.59
2017-10-28T05:47:14.607Z,1015.59
2017-10-28T05:47:55.159Z,1015.59
2017-10-28T05:48:35.739Z,1015.57
2017-10-28T05:49:16.260Z,1015.61
2017-10-28T05:49:56.803Z,1015.6
2017-10-28T05:50:37.305Z,1015.7
2017-10-28T05:51:17.812Z,1015.61
2017-10-28T05:51:58.284Z,1015.61
2017-10-28T05:52:38.750Z,1015.63
2017-10-28T05:54:36.376Z,1015.62
2017-10-28T05:55:16.878Z,1015.63
2017-10-28T05:55:57.433Z,1015.62
2017-10-28T05:56:37.807Z,1015.58
2017-10-28T05:57:18.248Z,1015.55
2017-10-28T05:59:36.035Z,1015.49
2017-10-28T06:00:16.544Z,1015.48
2017-10-28T06:00:57.031Z,1015.46
2017-10-28T06:01:37.508Z,1015.51
2017-10-28T06:02:17.978Z,1015.47
2017-10-28T06:02:58.475Z,1015.44
2017-10-28T06:03:38.966Z,1015.47
2017-10-28T06:04:19.440Z,1015.46
2017-10-28T06:04:59.904Z,1015.42
2017-10-28T06:05:40.388Z,1015.45
2017-10-28T06:06:20.871Z,1015.41
2017-10-28T06:07:01.364Z,1015.42
2017-10-28T06:07:41.822Z,1015.46
2017-10-28T06:08:22.295Z,1015.44
2017-10-28T06:09:02.755Z,1015.44
2017-10-28T06:09:43.229Z,1015.41
2017-10-28T06:10:23.703Z,1015.42
2017-10-28T06:11:04.181Z,1015.4
2017-10-28T06:12:56.706Z,1015.43
2017-10-28T06:13:37.235Z,1015.44
2017-10-28T06:14:17.695Z,1015.42
2017-10-28T06:14:58.167Z,1015.42
2017-10-28T06:15:38.637Z,1015.36
2017-10-28T06:16:19.134Z,1015.38
2017-10-28T06:16:59.693Z,1015.38
2017-10-28T06:17:40.097Z,1015.4
2017-10-28T06:18:20.573Z,1015.41
2017-10-28T06:19:01.068Z,1015.42
2017-10-28T06:19:41.535Z,1015.39
2017-10-28T06:20:22.018Z,1015.4
2017-10-28T06:21:02.446Z,1015.35
2017-10-28T06:21:42.889Z,1015.34
2017-10-28T06:22:23.364Z,1015.33
2017-10-28T06:23:03.809Z,1015.29
2017-10-28T06:23:44.272Z,1015.27
2017-10-28T06:24:24.734Z,1015.23
2017-10-28T06:26:37.439Z,1015.28
2017-10-28T06:27:17.913Z,1015.28
2017-10-28T06:27:58.393Z,1015.23
2017-10-28T06:30:11.139Z,1015.25
2017-10-28T06:30:51.537Z,1015.24
2017-10-28T06:31:32.004Z,1015.25
2017-10-28T06:32:12.495Z,1015.21
2017-10-28T06:32:52.974Z,1015.23
2017-10-28T06:33:33.469Z,1015.19
2017-10-28T06:34:13.953Z,1015.2
2017-10-28T06:34:54.432Z,1015.2
2017-10-28T06:35:34.917Z,1015.18
2017-10-28T06:36:15.414Z,1015.16
2017-10-28T06:36:55.888Z,1015.2
2017-10-28T06:37:36.357Z,1015.23
2017-10-28T06:38:16.843Z,1015.23
2017-10-28T06:38:57.347Z,1015.26
2017-10-28T06:39:37.811Z,1015.24
2017-10-28T06:40:18.300Z,1015.22
2017-10-28T06:40:58.777Z,1015.25
2017-10-28T06:41:39.273Z,1015.19
2017-10-28T06:42:19.745Z,1015.27
2017-10-28T06:43:00.213Z,1015.25
2017-10-28T06:43:40.764Z,1015.21
2017-10-28T06:44:21.210Z,1015.19
2017-10-28T06:45:01.688Z,1015.17
2017-10-28T06:45:42.155Z,1015.09
2017-10-28T06:46:22.603Z,1015.1
2017-10-28T06:47:03.052Z,1015.13
2017-10-28T06:47:43.516Z,1015.12
2017-10-28T06:49:41.143Z,1015.11
2017-10-28T06:50:21.587Z,1015.08
2017-10-28T06:51:02.065Z,1015.12
2017-10-28T06:51:42.547Z,1015.15
2017-10-28T06:52:23.023Z,1015.07
2017-10-28T06:53:03.513Z,1015.09
2017-10-28T06:53:44.021Z,1015.09
2017-10-28T06:54:24.488Z,1015.11
2017-10-28T06:55:04.969Z,1015.02
2017-10-28T06:55:45.438Z,1015.07
2017-10-28T06:56:25.934Z,1015.12
2017-10-28T06:57:06.389Z,1015.08
2017-10-28T06:57:46.874Z,1015.09
2017-10-28T06:58:27.363Z,1015.09
2017-10-28T06:59:07.826Z,1015.04
2017-10-28T06:59:48.288Z,1015.14
2017-10-28T07:00:28.758Z,1015.12
2017-10-28T07:01:09.242Z,1015.18
2017-10-28T07:01:49.712Z,1015.28
2017-10-28T07:02:30.194Z,1015.25
2017-10-28T07:03:10.671Z,1015.18
2017-10-28T07:03:51.149Z,1015.26
2017-10-28T07:04:31.673Z,1015.16
2017-10-28T07:05:12.134Z,1015.13
2017-10-28T07:05:52.599Z,1015.08
2017-10-28T07:06:33.049Z,1015.06
2017-10-28T07:07:13.502Z,1015.01
2017-10-28T07:09:06.042Z,1014.92
2017-10-28T07:09:46.554Z,1014.92
2017-10-28T07:10:27.031Z,1014.97
2017-10-28T07:11:07.477Z,1014.94
2017-10-28T07:11:47.973Z,1014.96
2017-10-28T07:12:28.455Z,1015.02
2017-10-28T07:13:08.942Z,1014.95
2017-10-28T07:13:49.411Z,1015
2017-10-28T07:14:29.884Z,1014.95
2017-10-28T07:15:10.368Z,1014.92
2017-10-28T07:15:50.856Z,1014.96
2017-10-28T07:16:31.337Z,1014.96
2017-10-28T07:17:11.799Z,1014.97
2017-10-28T07:17:52.259Z,1014.96
2017-10-28T07:18:32.726Z,1015.07
2017-10-28T07:19:13.178Z,1014.95
2017-10-28T07:19:53.641Z,1014.94
2017-10-28T07:20:34.076Z,1014.95
2017-10-28T07:21:14.525Z,1014.93
2017-10-28T07:23:07.098Z,1014.89
2017-10-28T07:23:47.587Z,1014.94
2017-10-28T07:24:28.058Z,1014.97
2017-10-28T07:25:08.532Z,1014.99
2017-10-28T07:25:49.066Z,1015
2017-10-28T07:26:29.504Z,1014.96
2017-10-28T07:27:09.990Z,1015.03
2017-10-28T07:27:50.536Z,1014.98
2017-10-28T07:30:18.444Z,1015.18
2017-10-28T07:30:58.938Z,1015.17
2017-10-28T07:31:39.362Z,1015.16
2017-10-28T07:32:19.860Z,1015.13
2017-10-28T07:33:00.357Z,1015.07
2017-10-28T07:33:40.821Z,1015.12
2017-10-28T07:34:21.300Z,1015.07
2017-10-28T07:35:01.755Z,1015
2017-10-28T07:35:42.244Z,1014.99
2017-10-28T07:36:22.723Z,1014.94
2017-10-28T07:37:03.208Z,1014.91
2017-10-28T07:37:43.688Z,1014.9
2017-10-28T07:38:24.152Z,1014.95
2017-10-28T07:39:04.622Z,1014.88
2017-10-28T07:39:45.090Z,1014.98
2017-10-28T07:40:25.496Z,1014.93
2017-10-28T07:41:05.932Z,1014.87
2017-10-28T07:42:58.540Z,1014.89
2017-10-28T07:43:38.985Z,1014.94
2017-10-28T07:45:56.766Z,1015.07
2017-10-28T07:46:37.226Z,1015.07
2017-10-28T07:47:17.699Z,1015.03
2017-10-28T07:47:58.176Z,1015.05
2017-10-28T07:48:38.660Z,1015
2017-10-28T07:49:19.133Z,1014.94
2017-10-28T07:49:59.575Z,1014.98
2017-10-28T07:50:40.027Z,1014.93
2017-10-28T07:51:20.472Z,1014.91
2017-10-28T07:52:00.946Z,1014.93
2017-10-28T07:52:41.424Z,1014.99
2017-10-28T07:53:21.914Z,1014.98
2017-10-28T07:54:02.332Z,1015.01
2017-10-28T07:56:30.256Z,1015.07
2017-10-28T07:57:10.736Z,1015.01
2017-10-28T07:57:51.242Z,1015.08
2017-10-28T07:58:32.349Z,1015.08
2017-10-28T07:59:12.805Z,1015.09
2017-10-28T07:59:53.283Z,1015.07
2017-10-28T08:00:33.773Z,1015.14
2017-10-28T08:01:14.206Z,1015.2
2017-10-28T08:01:54.632Z,1015.22
2017-10-28T08:02:35.086Z,1015.27
2017-10-28T08:03:15.541Z,1015.28
2017-10-28T08:03:55.979Z,1015.21
2017-10-28T08:05:48.602Z,1015.22
2017-10-28T08:06:29.078Z,1015.25
2017-10-28T08:07:09.624Z,1015.24
2017-10-28T08:07:50.038Z,1015.19
2017-10-28T08:08:30.502Z,1015.24
2017-10-28T08:09:10.970Z,1015.17
2017-10-28T08:09:51.437Z,1015.13
2017-10-28T08:10:31.887Z,1015.19
2017-10-28T08:11:12.330Z,1015.18
2017-10-28T08:11:52.827Z,1015.14
2017-10-28T08:12:33.298Z,1015.16
2017-10-28T08:13:13.765Z,1015.13
2017-10-28T08:13:54.227Z,1015.06
2017-10-28T08:14:34.707Z,1015.09
2017-10-28T08:15:15.187Z,1015.17
2017-10-28T08:15:55.631Z,1015.07
2017-10-28T08:16:36.088Z,1015.05
2017-10-28T08:17:16.518Z,1014.99
2017-10-28T08:17:56.974Z,1014.99
2017-10-28T08:18:37.430Z,1015.06
2017-10-28T08:19:17.870Z,1015.05
2017-10-28T08:19:58.319Z,1015.05
2017-10-28T08:20:38.798Z,1015
2017-10-28T08:21:19.256Z,1015.03
2017-10-28T08:21:59.704Z,1015.03
2017-10-28T08:22:40.153Z,1015.02
2017-10-28T08:23:20.616Z,1015.04
2017-10-28T08:25:48.512Z,1014.98
2017-10-28T08:26:29.024Z,1014.96
2017-10-28T08:27:09.514Z,1014.95
2017-10-28T08:27:49.991Z,1014.96
2017-10-28T08:28:30.468Z,1014.98
2017-10-28T08:29:10.948Z,1014.88
2017-10-28T08:31:23.845Z,1014.91
2017-10-28T08:32:04.314Z,1014.83
2017-10-28T08:32:44.797Z,1014.85
2017-10-28T08:33:25.282Z,1014.77
2017-10-28T08:34:05.797Z,1014.8
2017-10-28T08:34:46.254Z,1014.72
2017-10-28T08:35:26.705Z,1014.76
2017-10-28T08:36:07.201Z,1014.71
2017-10-28T08:36:47.677Z,1014.72
2017-10-28T08:37:28.168Z,1014.76
2017-10-28T08:38:08.661Z,1014.68
2017-10-28T08:38:49.138Z,1014.73
2017-10-28T08:39:29.605Z,1014.62
2017-10-28T08:40:10.100Z,1014.67
2017-10-28T08:40:50.578Z,1014.72
2017-10-28T08:41:31.067Z,1014.78
2017-10-28T08:42:11.575Z,1014.67
2017-10-28T08:42:52.065Z,1014.6
2017-10-28T08:43:32.538Z,1014.5
2017-10-28T08:44:13.002Z,1014.53
2017-10-28T08:44:53.455Z,1014.47
2017-10-28T08:46:51.055Z,1014.36
2017-10-28T08:47:31.560Z,1014.39
2017-10-28T08:48:12.054Z,1014.44
2017-10-28T08:48:52.556Z,1014.38
2017-10-28T08:49:33.040Z,1014.41
2017-10-28T08:50:13.528Z,1014.45
2017-10-28T08:50:53.997Z,1014.41
2017-10-28T08:51:34.492Z,1014.48
2017-10-28T08:52:14.963Z,1014.48
2017-10-28T08:52:55.435Z,1014.43
2017-10-28T08:53:35.930Z,1014.44
2017-10-28T08:54:16.400Z,1014.39
2017-10-28T08:54:56.902Z,1014.29
2017-10-28T08:55:37.386Z,1014.26
2017-10-28T08:56:17.850Z,1014.23
2017-10-28T08:58:10.509Z,1014.19
2017-10-28T08:58:50.972Z,1014.13
2017-10-28T08:59:31.462Z,1014.12
2017-10-28T09:00:11.962Z,1014.11
2017-10-28T09:00:52.465Z,1014.05
2017-10-28T09:01:32.951Z,1014.08
2017-10-28T09:02:13.440Z,1014.09
2017-10-28T09:02:53.917Z,1014.03
2017-10-28T09:03:34.421Z,1014.2
2017-10-28T09:04:14.870Z,1014.14
2017-10-28T09:04:55.370Z,1014.13
2017-10-28T09:05:35.856Z,1014.13
2017-10-28T09:06:16.354Z,1014.14
2017-10-28T09:06:56.833Z,1014.25
2017-10-28T09:07:37.314Z,1014.27
2017-10-28T09:08:17.769Z,1014.22